sensor_id;sensor_type;location;lat;lon;timestamp;P1;durP1;ratioP1;P2;durP2;ratioP2
11000;SDS011;5553;48.506;8.870;2023-05-10T00:01:54;1.30;;;0.40;;
11000;SDS011;5553;48.506;8.870;2023-05-10T00:04:23;0.90;;;0.47;;
11000;SDS011;5553;48.506;8.870;2023-05-10T00:06:52;0.60;;;0.50;;
11000;SDS011;5553;48.506;8.870;2023-05-10T00:09:20;2.37;;;0.80;;
11000;SDS011;5553;48.506;8.870;2023-05-10T00:11:51;1.93;;;0.77;;
11000;SDS011;5553;48.506;8.870;2023-05-10T00:14:19;0.40;;;0.33;;
11000;SDS011;5553;48.506;8.870;2023-05-10T00:16:48;1.03;;;0.43;;
11000;SDS011;5553;48.506;8.870;2023-05-10T00:19:16;0.47;;;0.30;;
11000;SDS011;5553;48.506;8.870;2023-05-10T00:21:44;0.40;;;0.30;;
11000;SDS011;5553;48.506;8.870;2023-05-10T00:24:12;1.53;;;0.37;;
11000;SDS011;5553;48.506;8.870;2023-05-10T00:26:41;0.50;;;0.40;;
11000;SDS011;5553;48.506;8.870;2023-05-10T00:29:12;0.60;;;0.20;;
11000;SDS011;5553;48.506;8.870;2023-05-10T00:31:40;0.40;;;0.20;;
11000;SDS011;5553;48.506;8.870;2023-05-10T00:34:08;0.30;;;0.20;;
11000;SDS011;5553;48.506;8.870;2023-05-10T00:36:37;0.40;;;0.20;;
11000;SDS011;5553;48.506;8.870;2023-05-10T00:39:05;2.10;;;0.40;;
11000;SDS011;5553;48.506;8.870;2023-05-10T00:41:33;0.40;;;0.30;;
11000;SDS011;5553;48.506;8.870;2023-05-10T00:44:02;0.40;;;0.23;;
11000;SDS011;5553;48.506;8.870;2023-05-10T00:46:33;0.30;;;0.20;;
11000;SDS011;5553;48.506;8.870;2023-05-10T00:49:01;0.40;;;0.30;;
11000;SDS011;5553;48.506;8.870;2023-05-10T00:51:30;0.70;;;0.40;;
11000;SDS011;5553;48.506;8.870;2023-05-10T00:53:58;0.53;;;0.30;;
11000;SDS011;5553;48.506;8.870;2023-05-10T00:56:27;0.80;;;0.33;;
11000;SDS011;5553;48.506;8.870;2023-05-10T00:58:56;3.07;;;0.30;;
11000;SDS011;5553;48.506;8.870;2023-05-10T01:01:24;0.50;;;0.30;;
11000;SDS011;5553;48.506;8.870;2023-05-10T01:03:55;0.80;;;0.30;;
11000;SDS011;5553;48.506;8.870;2023-05-10T01:06:24;1.17;;;0.30;;
11000;SDS011;5553;48.506;8.870;2023-05-10T01:08:52;0.60;;;0.47;;
11000;SDS011;5553;48.506;8.870;2023-05-10T01:11:21;0.43;;;0.30;;
11000;SDS011;5553;48.506;8.870;2023-05-10T01:13:50;0.40;;;0.30;;
11000;SDS011;5553;48.506;8.870;2023-05-10T01:16:23;1.57;;;0.57;;
11000;SDS011;5553;48.506;8.870;2023-05-10T01:18:54;0.40;;;0.30;;
11000;SDS011;5553;48.506;8.870;2023-05-10T01:21:23;0.40;;;0.30;;
11000;SDS011;5553;48.506;8.870;2023-05-10T01:24:12;0.40;;;0.30;;
11000;SDS011;5553;48.506;8.870;2023-05-10T01:27:12;0.53;;;0.40;;
11000;SDS011;5553;48.506;8.870;2023-05-10T01:29:59;0.40;;;0.30;;
11000;SDS011;5553;48.506;8.870;2023-05-10T01:32:39;1.70;;;0.60;;
11000;SDS011;5553;48.506;8.870;2023-05-10T01:35:16;0.77;;;0.43;;
11000;SDS011;5553;48.506;8.870;2023-05-10T01:37:49;0.63;;;0.40;;
11000;SDS011;5553;48.506;8.870;2023-05-10T01:40:25;0.50;;;0.40;;
11000;SDS011;5553;48.506;8.870;2023-05-10T01:42:59;0.40;;;0.30;;
11000;SDS011;5553;48.506;8.870;2023-05-10T01:45:31;0.30;;;0.30;;
11000;SDS011;5553;48.506;8.870;2023-05-10T01:48:08;0.83;;;0.50;;
11000;SDS011;5553;48.506;8.870;2023-05-10T01:50:39;0.93;;;0.60;;
11000;SDS011;5553;48.506;8.870;2023-05-10T01:53:13;0.67;;;0.33;;
11000;SDS011;5553;48.506;8.870;2023-05-10T01:55:47;0.43;;;0.33;;
11000;SDS011;5553;48.506;8.870;2023-05-10T01:58:20;0.80;;;0.60;;
11000;SDS011;5553;48.506;8.870;2023-05-10T02:00:51;0.80;;;0.30;;
11000;SDS011;5553;48.506;8.870;2023-05-10T02:03:24;0.40;;;0.30;;
11000;SDS011;5553;48.506;8.870;2023-05-10T02:05:53;0.50;;;0.30;;
11000;SDS011;5553;48.506;8.870;2023-05-10T02:08:22;0.50;;;0.50;;
11000;SDS011;5553;48.506;8.870;2023-05-10T02:10:53;0.40;;;0.40;;
11000;SDS011;5553;48.506;8.870;2023-05-10T02:13:24;0.73;;;0.50;;
11000;SDS011;5553;48.506;8.870;2023-05-10T02:15:53;1.03;;;0.53;;
11000;SDS011;5553;48.506;8.870;2023-05-10T02:18:25;2.50;;;0.50;;
11000;SDS011;5553;48.506;8.870;2023-05-10T02:20:55;0.80;;;0.53;;
11000;SDS011;5553;48.506;8.870;2023-05-10T02:23:25;0.83;;;0.80;;
11000;SDS011;5553;48.506;8.870;2023-05-10T02:25:54;1.10;;;0.97;;
11000;SDS011;5553;48.506;8.870;2023-05-10T02:28:24;0.50;;;0.50;;
11000;SDS011;5553;48.506;8.870;2023-05-10T02:30:53;0.60;;;0.60;;
11000;SDS011;5553;48.506;8.870;2023-05-10T02:33:23;1.60;;;0.60;;
11000;SDS011;5553;48.506;8.870;2023-05-10T02:35:55;1.80;;;1.00;;
11000;SDS011;5553;48.506;8.870;2023-05-10T02:38:24;0.73;;;0.73;;
11000;SDS011;5553;48.506;8.870;2023-05-10T02:40:54;1.13;;;0.60;;
11000;SDS011;5553;48.506;8.870;2023-05-10T02:43:23;1.30;;;0.90;;
11000;SDS011;5553;48.506;8.870;2023-05-10T02:45:53;1.20;;;1.10;;
11000;SDS011;5553;48.506;8.870;2023-05-10T02:48:21;1.70;;;1.50;;
11000;SDS011;5553;48.506;8.870;2023-05-10T02:50:52;1.83;;;1.73;;
11000;SDS011;5553;48.506;8.870;2023-05-10T02:53:31;2.67;;;1.50;;
11000;SDS011;5553;48.506;8.870;2023-05-10T02:56:01;1.43;;;1.30;;
11000;SDS011;5553;48.506;8.870;2023-05-10T02:58:33;1.27;;;1.17;;
11000;SDS011;5553;48.506;8.870;2023-05-10T03:01:01;1.00;;;0.80;;
11000;SDS011;5553;48.506;8.870;2023-05-10T03:03:30;2.43;;;0.90;;
11000;SDS011;5553;48.506;8.870;2023-05-10T03:06:01;1.90;;;0.80;;
11000;SDS011;5553;48.506;8.870;2023-05-10T03:08:29;0.50;;;0.50;;
11000;SDS011;5553;48.506;8.870;2023-05-10T03:11:01;0.73;;;0.70;;
11000;SDS011;5553;48.506;8.870;2023-05-10T03:13:47;0.90;;;0.80;;
11000;SDS011;5553;48.506;8.870;2023-05-10T03:16:22;2.80;;;1.10;;
11000;SDS011;5553;48.506;8.870;2023-05-10T03:18:56;0.80;;;0.60;;
11000;SDS011;5553;48.506;8.870;2023-05-10T03:21:36;1.53;;;0.77;;
11000;SDS011;5553;48.506;8.870;2023-05-10T03:24:09;0.80;;;0.70;;
11000;SDS011;5553;48.506;8.870;2023-05-10T03:26:40;1.70;;;0.70;;
11000;SDS011;5553;48.506;8.870;2023-05-10T03:29:12;0.93;;;0.80;;
11000;SDS011;5553;48.506;8.870;2023-05-10T03:31:41;0.70;;;0.50;;
11000;SDS011;5553;48.506;8.870;2023-05-10T03:34:10;1.00;;;0.90;;
11000;SDS011;5553;48.506;8.870;2023-05-10T03:36:41;1.17;;;0.70;;
11000;SDS011;5553;48.506;8.870;2023-05-10T03:39:09;0.90;;;0.80;;
11000;SDS011;5553;48.506;8.870;2023-05-10T03:41:37;0.90;;;0.80;;
11000;SDS011;5553;48.506;8.870;2023-05-10T03:44:06;1.67;;;0.90;;
11000;SDS011;5553;48.506;8.870;2023-05-10T03:46:34;1.23;;;1.10;;
11000;SDS011;5553;48.506;8.870;2023-05-10T03:49:03;0.83;;;0.80;;
11000;SDS011;5553;48.506;8.870;2023-05-10T03:51:31;1.10;;;1.00;;
11000;SDS011;5553;48.506;8.870;2023-05-10T03:54:02;0.80;;;0.80;;
11000;SDS011;5553;48.506;8.870;2023-05-10T03:56:30;1.40;;;1.30;;
11000;SDS011;5553;48.506;8.870;2023-05-10T03:58:58;1.27;;;0.97;;
11000;SDS011;5553;48.506;8.870;2023-05-10T04:01:32;0.80;;;0.80;;
11000;SDS011;5553;48.506;8.870;2023-05-10T04:04:00;0.80;;;0.80;;
11000;SDS011;5553;48.506;8.870;2023-05-10T04:06:29;6.13;;;1.10;;
11000;SDS011;5553;48.506;8.870;2023-05-10T04:08:57;1.03;;;0.90;;
11000;SDS011;5553;48.506;8.870;2023-05-10T04:11:31;1.77;;;1.40;;
11000;SDS011;5553;48.506;8.870;2023-05-10T04:13:59;1.17;;;1.17;;
11000;SDS011;5553;48.506;8.870;2023-05-10T04:16:28;1.10;;;1.00;;
11000;SDS011;5553;48.506;8.870;2023-05-10T04:18:56;1.23;;;1.13;;
11000;SDS011;5553;48.506;8.870;2023-05-10T04:21:25;1.10;;;1.00;;
11000;SDS011;5553;48.506;8.870;2023-05-10T04:23:53;1.10;;;1.10;;
11000;SDS011;5553;48.506;8.870;2023-05-10T04:26:21;0.90;;;0.90;;
11000;SDS011;5553;48.506;8.870;2023-05-10T04:28:52;1.33;;;1.10;;
11000;SDS011;5553;48.506;8.870;2023-05-10T04:31:20;1.07;;;1.00;;
11000;SDS011;5553;48.506;8.870;2023-05-10T04:33:49;0.87;;;0.87;;
11000;SDS011;5553;48.506;8.870;2023-05-10T04:36:17;1.00;;;1.00;;
11000;SDS011;5553;48.506;8.870;2023-05-10T04:38:45;1.73;;;1.13;;
11000;SDS011;5553;48.506;8.870;2023-05-10T04:41:14;4.60;;;1.70;;
11000;SDS011;5553;48.506;8.870;2023-05-10T04:43:42;1.40;;;1.30;;
11000;SDS011;5553;48.506;8.870;2023-05-10T04:46:13;3.03;;;1.50;;
11000;SDS011;5553;48.506;8.870;2023-05-10T04:48:41;2.10;;;1.70;;
11000;SDS011;5553;48.506;8.870;2023-05-10T04:51:10;1.83;;;1.50;;
11000;SDS011;5553;48.506;8.870;2023-05-10T04:53:38;3.93;;;1.60;;
11000;SDS011;5553;48.506;8.870;2023-05-10T04:56:07;1.90;;;1.70;;
11000;SDS011;5553;48.506;8.870;2023-05-10T04:58:35;1.30;;;1.20;;
11000;SDS011;5553;48.506;8.870;2023-05-10T05:01:06;1.80;;;1.70;;
11000;SDS011;5553;48.506;8.870;2023-05-10T05:03:38;1.10;;;1.07;;
11000;SDS011;5553;48.506;8.870;2023-05-10T05:06:07;8.10;;;2.40;;
11000;SDS011;5553;48.506;8.870;2023-05-10T05:08:35;1.73;;;1.63;;
11000;SDS011;5553;48.506;8.870;2023-05-10T05:11:04;3.07;;;1.90;;
11000;SDS011;5553;48.506;8.870;2023-05-10T05:13:32;4.40;;;1.40;;
11000;SDS011;5553;48.506;8.870;2023-05-10T05:16:00;2.63;;;1.60;;
11000;SDS011;5553;48.506;8.870;2023-05-10T05:18:30;2.70;;;1.70;;
11000;SDS011;5553;48.506;8.870;2023-05-10T05:21:00;5.30;;;1.90;;
11000;SDS011;5553;48.506;8.870;2023-05-10T05:23:29;3.27;;;1.83;;
11000;SDS011;5553;48.506;8.870;2023-05-10T05:25:57;1.40;;;1.23;;
11000;SDS011;5553;48.506;8.870;2023-05-10T05:28:25;1.90;;;1.80;;
11000;SDS011;5553;48.506;8.870;2023-05-10T05:30:57;5.37;;;1.90;;
11000;SDS011;5553;48.506;8.870;2023-05-10T05:33:26;2.13;;;2.00;;
11000;SDS011;5553;48.506;8.870;2023-05-10T05:35:54;3.27;;;1.70;;
11000;SDS011;5553;48.506;8.870;2023-05-10T05:38:25;2.80;;;1.60;;
11000;SDS011;5553;48.506;8.870;2023-05-10T05:40:53;4.17;;;1.60;;
11000;SDS011;5553;48.506;8.870;2023-05-10T05:43:22;1.80;;;1.70;;
11000;SDS011;5553;48.506;8.870;2023-05-10T05:45:51;2.30;;;2.10;;
11000;SDS011;5553;48.506;8.870;2023-05-10T05:48:20;2.90;;;2.20;;
11000;SDS011;5553;48.506;8.870;2023-05-10T05:50:49;3.27;;;1.70;;
11000;SDS011;5553;48.506;8.870;2023-05-10T05:53:17;1.93;;;1.57;;
11000;SDS011;5553;48.506;8.870;2023-05-10T05:55:53;1.50;;;1.40;;
11000;SDS011;5553;48.506;8.870;2023-05-10T05:58:22;1.30;;;1.20;;
11000;SDS011;5553;48.506;8.870;2023-05-10T06:00:50;1.93;;;0.97;;
11000;SDS011;5553;48.506;8.870;2023-05-10T06:03:19;1.40;;;1.33;;
11000;SDS011;5553;48.506;8.870;2023-05-10T06:05:48;5.60;;;1.00;;
11000;SDS011;5553;48.506;8.870;2023-05-10T06:08:16;1.70;;;1.27;;
11000;SDS011;5553;48.506;8.870;2023-05-10T06:10:45;2.10;;;1.20;;
11000;SDS011;5553;48.506;8.870;2023-05-10T06:13:16;1.70;;;1.20;;
11000;SDS011;5553;48.506;8.870;2023-05-10T06:15:44;1.70;;;1.47;;
11000;SDS011;5553;48.506;8.870;2023-05-10T06:18:12;1.00;;;1.00;;
11000;SDS011;5553;48.506;8.870;2023-05-10T06:20:41;1.00;;;0.90;;
11000;SDS011;5553;48.506;8.870;2023-05-10T06:23:09;1.20;;;1.10;;
11000;SDS011;5553;48.506;8.870;2023-05-10T06:25:38;1.60;;;0.83;;
11000;SDS011;5553;48.506;8.870;2023-05-10T06:28:06;0.90;;;0.87;;
11000;SDS011;5553;48.506;8.870;2023-05-10T06:30:38;1.43;;;0.83;;
11000;SDS011;5553;48.506;8.870;2023-05-10T06:33:06;1.43;;;0.80;;
11000;SDS011;5553;48.506;8.870;2023-05-10T06:35:34;3.30;;;1.07;;
11000;SDS011;5553;48.506;8.870;2023-05-10T06:38:02;1.10;;;1.00;;
11000;SDS011;5553;48.506;8.870;2023-05-10T06:40:30;0.67;;;0.67;;
11000;SDS011;5553;48.506;8.870;2023-05-10T06:42:59;1.10;;;0.90;;
11000;SDS011;5553;48.506;8.870;2023-05-10T06:45:27;0.97;;;0.87;;
11000;SDS011;5553;48.506;8.870;2023-05-10T06:47:58;2.40;;;1.60;;
11000;SDS011;5553;48.506;8.870;2023-05-10T06:50:26;3.53;;;1.03;;
11000;SDS011;5553;48.506;8.870;2023-05-10T06:52:54;1.00;;;1.00;;
11000;SDS011;5553;48.506;8.870;2023-05-10T06:55:23;1.13;;;0.90;;
11000;SDS011;5553;48.506;8.870;2023-05-10T06:57:51;0.80;;;0.80;;
11000;SDS011;5553;48.506;8.870;2023-05-10T07:00:19;1.33;;;1.07;;
11000;SDS011;5553;48.506;8.870;2023-05-10T07:02:48;1.27;;;1.10;;
11000;SDS011;5553;48.506;8.870;2023-05-10T07:05:18;1.07;;;0.97;;
11000;SDS011;5553;48.506;8.870;2023-05-10T07:07:47;0.87;;;0.87;;
11000;SDS011;5553;48.506;8.870;2023-05-10T07:10:16;1.70;;;1.00;;
11000;SDS011;5553;48.506;8.870;2023-05-10T07:12:44;1.20;;;1.00;;
11000;SDS011;5553;48.506;8.870;2023-05-10T07:15:13;1.03;;;0.93;;
11000;SDS011;5553;48.506;8.870;2023-05-10T07:17:41;1.03;;;1.00;;
11000;SDS011;5553;48.506;8.870;2023-05-10T07:20:10;1.17;;;0.90;;
11000;SDS011;5553;48.506;8.870;2023-05-10T07:22:42;1.00;;;0.90;;
11000;SDS011;5553;48.506;8.870;2023-05-10T07:25:10;0.63;;;0.63;;
11000;SDS011;5553;48.506;8.870;2023-05-10T07:27:38;1.03;;;0.93;;
11000;SDS011;5553;48.506;8.870;2023-05-10T07:30:07;2.20;;;0.90;;
11000;SDS011;5553;48.506;8.870;2023-05-10T07:32:36;0.77;;;0.73;;
11000;SDS011;5553;48.506;8.870;2023-05-10T07:35:07;1.40;;;0.67;;
11000;SDS011;5553;48.506;8.870;2023-05-10T07:37:36;0.97;;;0.70;;
11000;SDS011;5553;48.506;8.870;2023-05-10T07:40:08;0.63;;;0.63;;
11000;SDS011;5553;48.506;8.870;2023-05-10T07:42:36;1.53;;;0.80;;
11000;SDS011;5553;48.506;8.870;2023-05-10T07:45:05;2.67;;;0.90;;
11000;SDS011;5553;48.506;8.870;2023-05-10T07:47:34;1.00;;;0.90;;
11000;SDS011;5553;48.506;8.870;2023-05-10T07:50:03;1.57;;;0.70;;
11000;SDS011;5553;48.506;8.870;2023-05-10T07:52:32;0.90;;;0.80;;
11000;SDS011;5553;48.506;8.870;2023-05-10T07:55:01;1.37;;;0.70;;
11000;SDS011;5553;48.506;8.870;2023-05-10T07:57:31;1.43;;;0.90;;
11000;SDS011;5553;48.506;8.870;2023-05-10T08:00:00;0.70;;;0.70;;
11000;SDS011;5553;48.506;8.870;2023-05-10T08:02:28;6.03;;;0.97;;
11000;SDS011;5553;48.506;8.870;2023-05-10T08:04:57;1.23;;;0.47;;
11000;SDS011;5553;48.506;8.870;2023-05-10T08:07:25;1.30;;;0.83;;
11000;SDS011;5553;48.506;8.870;2023-05-10T08:09:53;1.73;;;1.10;;
11000;SDS011;5553;48.506;8.870;2023-05-10T08:12:21;3.13;;;1.17;;
11000;SDS011;5553;48.506;8.870;2023-05-10T08:14:52;0.83;;;0.70;;
11000;SDS011;5553;48.506;8.870;2023-05-10T08:17:20;0.80;;;0.80;;
11000;SDS011;5553;48.506;8.870;2023-05-10T08:19:49;2.10;;;0.70;;
11000;SDS011;5553;48.506;8.870;2023-05-10T08:22:17;0.67;;;0.67;;
11000;SDS011;5553;48.506;8.870;2023-05-10T08:24:45;0.80;;;0.80;;
11000;SDS011;5553;48.506;8.870;2023-05-10T08:27:13;0.60;;;0.60;;
11000;SDS011;5553;48.506;8.870;2023-05-10T08:29:42;1.63;;;0.60;;
11000;SDS011;5553;48.506;8.870;2023-05-10T08:32:12;1.17;;;0.40;;
11000;SDS011;5553;48.506;8.870;2023-05-10T08:34:41;0.90;;;0.50;;
11000;SDS011;5553;48.506;8.870;2023-05-10T08:37:09;0.90;;;0.53;;
11000;SDS011;5553;48.506;8.870;2023-05-10T08:39:38;1.53;;;1.00;;
11000;SDS011;5553;48.506;8.870;2023-05-10T08:42:06;0.50;;;0.50;;
11000;SDS011;5553;48.506;8.870;2023-05-10T08:44:36;0.90;;;0.60;;
11000;SDS011;5553;48.506;8.870;2023-05-10T08:47:05;1.23;;;0.50;;
11000;SDS011;5553;48.506;8.870;2023-05-10T08:49:37;0.50;;;0.50;;
11000;SDS011;5553;48.506;8.870;2023-05-10T08:52:05;0.73;;;0.50;;
11000;SDS011;5553;48.506;8.870;2023-05-10T08:54:34;1.10;;;0.30;;
11000;SDS011;5553;48.506;8.870;2023-05-10T08:57:04;2.53;;;0.50;;
11000;SDS011;5553;48.506;8.870;2023-05-10T08:59:32;1.63;;;0.50;;
11000;SDS011;5553;48.506;8.870;2023-05-10T09:02:01;0.70;;;0.70;;
11000;SDS011;5553;48.506;8.870;2023-05-10T09:04:29;1.50;;;0.60;;
11000;SDS011;5553;48.506;8.870;2023-05-10T09:07:01;0.63;;;0.50;;
11000;SDS011;5553;48.506;8.870;2023-05-10T09:09:29;0.73;;;0.67;;
11000;SDS011;5553;48.506;8.870;2023-05-10T09:11:59;0.83;;;0.57;;
11000;SDS011;5553;48.506;8.870;2023-05-10T09:14:27;0.80;;;0.60;;
11000;SDS011;5553;48.506;8.870;2023-05-10T09:16:56;1.13;;;0.70;;
11000;SDS011;5553;48.506;8.870;2023-05-10T09:19:25;0.60;;;0.40;;
11000;SDS011;5553;48.506;8.870;2023-05-10T09:21:53;0.90;;;0.70;;
11000;SDS011;5553;48.506;8.870;2023-05-10T09:24:28;1.03;;;0.50;;
11000;SDS011;5553;48.506;8.870;2023-05-10T09:26:57;2.50;;;0.50;;
11000;SDS011;5553;48.506;8.870;2023-05-10T09:29:26;0.80;;;0.73;;
11000;SDS011;5553;48.506;8.870;2023-05-10T09:32:06;0.57;;;0.57;;
11000;SDS011;5553;48.506;8.870;2023-05-10T09:34:34;1.87;;;0.80;;
11000;SDS011;5553;48.506;8.870;2023-05-10T09:37:05;0.87;;;0.63;;
11000;SDS011;5553;48.506;8.870;2023-05-10T09:39:36;0.97;;;0.70;;
11000;SDS011;5553;48.506;8.870;2023-05-10T09:42:07;0.60;;;0.60;;
11000;SDS011;5553;48.506;8.870;2023-05-10T09:44:36;0.80;;;0.80;;
11000;SDS011;5553;48.506;8.870;2023-05-10T09:47:05;0.80;;;0.80;;
11000;SDS011;5553;48.506;8.870;2023-05-10T09:49:34;1.27;;;0.77;;
11000;SDS011;5553;48.506;8.870;2023-05-10T09:52:03;0.90;;;0.60;;
11000;SDS011;5553;48.506;8.870;2023-05-10T09:54:32;2.37;;;1.03;;
11000;SDS011;5553;48.506;8.870;2023-05-10T09:57:04;0.53;;;0.50;;
11000;SDS011;5553;48.506;8.870;2023-05-10T09:59:32;1.53;;;0.80;;
11000;SDS011;5553;48.506;8.870;2023-05-10T10:02:01;0.70;;;0.60;;
11000;SDS011;5553;48.506;8.870;2023-05-10T10:04:30;1.20;;;0.80;;
11000;SDS011;5553;48.506;8.870;2023-05-10T10:06:58;1.07;;;0.73;;
11000;SDS011;5553;48.506;8.870;2023-05-10T10:09:28;0.83;;;0.83;;
11000;SDS011;5553;48.506;8.870;2023-05-10T10:11:57;2.20;;;1.20;;
11000;SDS011;5553;48.506;8.870;2023-05-10T10:14:28;1.43;;;0.97;;
11000;SDS011;5553;48.506;8.870;2023-05-10T10:16:56;0.93;;;0.93;;
11000;SDS011;5553;48.506;8.870;2023-05-10T10:19:27;0.80;;;0.70;;
11000;SDS011;5553;48.506;8.870;2023-05-10T10:21:56;0.97;;;0.97;;
11000;SDS011;5553;48.506;8.870;2023-05-10T10:24:25;1.53;;;0.93;;
11000;SDS011;5553;48.506;8.870;2023-05-10T10:26:53;2.10;;;1.10;;
11000;SDS011;5553;48.506;8.870;2023-05-10T10:29:31;1.07;;;0.97;;
11000;SDS011;5553;48.506;8.870;2023-05-10T10:32:09;0.80;;;0.80;;
11000;SDS011;5553;48.506;8.870;2023-05-10T10:34:46;2.00;;;1.00;;
11000;SDS011;5553;48.506;8.870;2023-05-10T10:37:15;0.90;;;0.70;;
11000;SDS011;5553;48.506;8.870;2023-05-10T10:39:43;0.87;;;0.40;;
11000;SDS011;5553;48.506;8.870;2023-05-10T10:42:12;0.60;;;0.50;;
11000;SDS011;5553;48.506;8.870;2023-05-10T10:44:42;3.73;;;0.97;;
11000;SDS011;5553;48.506;8.870;2023-05-10T10:50:04;2.13;;;0.97;;
11000;SDS011;5553;48.506;8.870;2023-05-10T10:52:35;1.83;;;0.90;;
11000;SDS011;5553;48.506;8.870;2023-05-10T10:55:05;0.50;;;0.40;;
11000;SDS011;5553;48.506;8.870;2023-05-10T10:57:45;1.87;;;0.70;;
11000;SDS011;5553;48.506;8.870;2023-05-10T11:00:22;0.60;;;0.60;;
11000;SDS011;5553;48.506;8.870;2023-05-10T11:02:53;2.70;;;0.90;;
11000;SDS011;5553;48.506;8.870;2023-05-10T11:05:24;1.37;;;0.90;;
11000;SDS011;5553;48.506;8.870;2023-05-10T11:08:15;2.30;;;1.10;;
11000;SDS011;5553;48.506;8.870;2023-05-10T11:10:51;1.70;;;0.90;;
11000;SDS011;5553;48.506;8.870;2023-05-10T11:13:31;4.07;;;0.73;;
11000;SDS011;5553;48.506;8.870;2023-05-10T11:16:13;1.80;;;0.93;;
11000;SDS011;5553;48.506;8.870;2023-05-10T11:18:57;1.53;;;0.70;;
11000;SDS011;5553;48.506;8.870;2023-05-10T11:21:27;0.70;;;0.70;;
11000;SDS011;5553;48.506;8.870;2023-05-10T11:23:56;1.73;;;0.80;;
11000;SDS011;5553;48.506;8.870;2023-05-10T11:26:26;5.20;;;1.33;;
11000;SDS011;5553;48.506;8.870;2023-05-10T11:28:59;1.27;;;1.13;;
11000;SDS011;5553;48.506;8.870;2023-05-10T11:31:32;0.80;;;0.80;;
11000;SDS011;5553;48.506;8.870;2023-05-10T11:34:00;2.03;;;0.93;;
11000;SDS011;5553;48.506;8.870;2023-05-10T11:36:31;4.03;;;0.90;;
11000;SDS011;5553;48.506;8.870;2023-05-10T11:39:01;2.90;;;1.40;;
11000;SDS011;5553;48.506;8.870;2023-05-10T11:41:30;2.23;;;0.97;;
11000;SDS011;5553;48.506;8.870;2023-05-10T11:43:59;1.90;;;1.40;;
11000;SDS011;5553;48.506;8.870;2023-05-10T11:46:27;2.30;;;0.90;;
11000;SDS011;5553;48.506;8.870;2023-05-10T11:49:00;0.77;;;0.77;;
11000;SDS011;5553;48.506;8.870;2023-05-10T11:51:33;4.70;;;1.27;;
11000;SDS011;5553;48.506;8.870;2023-05-10T11:54:05;3.60;;;0.90;;
11000;SDS011;5553;48.506;8.870;2023-05-10T11:56:35;1.50;;;0.80;;
11000;SDS011;5553;48.506;8.870;2023-05-10T11:59:04;1.33;;;0.93;;
11000;SDS011;5553;48.506;8.870;2023-05-10T12:01:33;2.30;;;1.20;;
11000;SDS011;5553;48.506;8.870;2023-05-10T12:04:04;1.20;;;0.93;;
11000;SDS011;5553;48.506;8.870;2023-05-10T12:06:33;1.80;;;1.30;;
11000;SDS011;5553;48.506;8.870;2023-05-10T12:09:07;2.93;;;1.17;;
11000;SDS011;5553;48.506;8.870;2023-05-10T12:11:37;4.43;;;1.13;;
11000;SDS011;5553;48.506;8.870;2023-05-10T12:14:07;2.27;;;0.90;;
11000;SDS011;5553;48.506;8.870;2023-05-10T12:16:36;2.60;;;1.00;;
11000;SDS011;5553;48.506;8.870;2023-05-10T12:19:07;1.47;;;1.03;;
11000;SDS011;5553;48.506;8.870;2023-05-10T12:21:35;1.90;;;1.03;;
11000;SDS011;5553;48.506;8.870;2023-05-10T12:24:04;1.47;;;1.07;;
11000;SDS011;5553;48.506;8.870;2023-05-10T12:26:32;1.23;;;1.00;;
11000;SDS011;5553;48.506;8.870;2023-05-10T12:29:12;3.77;;;1.10;;
11000;SDS011;5553;48.506;8.870;2023-05-10T12:31:51;2.00;;;1.00;;
11000;SDS011;5553;48.506;8.870;2023-05-10T12:34:27;1.57;;;0.93;;
11000;SDS011;5553;48.506;8.870;2023-05-10T12:36:58;6.13;;;1.10;;
11000;SDS011;5553;48.506;8.870;2023-05-10T12:39:37;0.67;;;0.60;;
11000;SDS011;5553;48.506;8.870;2023-05-10T12:42:06;2.03;;;0.70;;
11000;SDS011;5553;48.506;8.870;2023-05-10T12:44:34;1.33;;;1.07;;
11000;SDS011;5553;48.506;8.870;2023-05-10T12:47:03;1.53;;;1.10;;
11000;SDS011;5553;48.506;8.870;2023-05-10T12:49:34;3.00;;;0.90;;
11000;SDS011;5553;48.506;8.870;2023-05-10T12:52:02;2.07;;;0.87;;
11000;SDS011;5553;48.506;8.870;2023-05-10T12:54:31;4.80;;;1.63;;
11000;SDS011;5553;48.506;8.870;2023-05-10T12:56:59;3.00;;;1.13;;
11000;SDS011;5553;48.506;8.870;2023-05-10T12:59:27;1.30;;;0.90;;
11000;SDS011;5553;48.506;8.870;2023-05-10T13:01:56;1.20;;;1.20;;
11000;SDS011;5553;48.506;8.870;2023-05-10T13:04:25;1.33;;;1.00;;
11000;SDS011;5553;48.506;8.870;2023-05-10T13:06:55;1.70;;;0.97;;
11000;SDS011;5553;48.506;8.870;2023-05-10T13:09:24;4.20;;;1.40;;
11000;SDS011;5553;48.506;8.870;2023-05-10T13:11:54;4.97;;;1.07;;
11000;SDS011;5553;48.506;8.870;2023-05-10T13:14:22;2.57;;;1.10;;
11000;SDS011;5553;48.506;8.870;2023-05-10T13:16:50;1.83;;;1.43;;
11000;SDS011;5553;48.506;8.870;2023-05-10T13:19:19;2.10;;;1.50;;
11000;SDS011;5553;48.506;8.870;2023-05-10T13:21:47;2.63;;;1.40;;
11000;SDS011;5553;48.506;8.870;2023-05-10T13:24:18;4.30;;;1.23;;
11000;SDS011;5553;48.506;8.870;2023-05-10T13:26:46;1.57;;;1.37;;
11000;SDS011;5553;48.506;8.870;2023-05-10T13:29:15;1.87;;;1.70;;
11000;SDS011;5553;48.506;8.870;2023-05-10T13:31:44;1.20;;;0.90;;
11000;SDS011;5553;48.506;8.870;2023-05-10T13:34:12;2.40;;;1.40;;
11000;SDS011;5553;48.506;8.870;2023-05-10T13:36:40;8.80;;;3.27;;
11000;SDS011;5553;48.506;8.870;2023-05-10T13:39:09;1.73;;;1.30;;
11000;SDS011;5553;48.506;8.870;2023-05-10T13:41:39;0.80;;;0.80;;
11000;SDS011;5553;48.506;8.870;2023-05-10T13:44:08;3.87;;;1.50;;
11000;SDS011;5553;48.506;8.870;2023-05-10T13:46:37;2.20;;;1.13;;
11000;SDS011;5553;48.506;8.870;2023-05-10T13:49:05;2.17;;;1.30;;
11000;SDS011;5553;48.506;8.870;2023-05-10T13:51:34;3.07;;;1.33;;
11000;SDS011;5553;48.506;8.870;2023-05-10T13:54:02;2.13;;;1.20;;
11000;SDS011;5553;48.506;8.870;2023-05-10T13:56:30;2.53;;;1.57;;
11000;SDS011;5553;48.506;8.870;2023-05-10T13:59:02;3.20;;;1.10;;
11000;SDS011;5553;48.506;8.870;2023-05-10T14:01:30;1.13;;;0.97;;
11000;SDS011;5553;48.506;8.870;2023-05-10T14:03:59;2.23;;;1.27;;
11000;SDS011;5553;48.506;8.870;2023-05-10T14:06:28;2.80;;;1.40;;
11000;SDS011;5553;48.506;8.870;2023-05-10T14:08:57;2.30;;;1.07;;
11000;SDS011;5553;48.506;8.870;2023-05-10T14:11:25;2.80;;;1.40;;
11000;SDS011;5553;48.506;8.870;2023-05-10T14:13:53;1.70;;;1.33;;
11000;SDS011;5553;48.506;8.870;2023-05-10T14:16:24;3.73;;;1.20;;
11000;SDS011;5553;48.506;8.870;2023-05-10T14:18:52;1.47;;;1.20;;
11000;SDS011;5553;48.506;8.870;2023-05-10T14:21:21;3.50;;;1.20;;
11000;SDS011;5553;48.506;8.870;2023-05-10T14:23:49;1.47;;;0.77;;
11000;SDS011;5553;48.506;8.870;2023-05-10T14:26:17;1.37;;;0.80;;
11000;SDS011;5553;48.506;8.870;2023-05-10T14:28:45;1.30;;;1.20;;
11000;SDS011;5553;48.506;8.870;2023-05-10T14:31:14;1.00;;;0.90;;
11000;SDS011;5553;48.506;8.870;2023-05-10T14:33:47;2.43;;;0.90;;
11000;SDS011;5553;48.506;8.870;2023-05-10T14:36:15;1.17;;;1.07;;
11000;SDS011;5553;48.506;8.870;2023-05-10T14:38:43;2.60;;;1.20;;
11000;SDS011;5553;48.506;8.870;2023-05-10T14:41:13;1.20;;;0.80;;
11000;SDS011;5553;48.506;8.870;2023-05-10T14:43:42;2.40;;;0.90;;
11000;SDS011;5553;48.506;8.870;2023-05-10T14:46:10;3.97;;;1.03;;
11000;SDS011;5553;48.506;8.870;2023-05-10T14:48:39;2.37;;;0.90;;
11000;SDS011;5553;48.506;8.870;2023-05-10T14:51:10;1.87;;;0.87;;
11000;SDS011;5553;48.506;8.870;2023-05-10T14:53:38;0.93;;;0.83;;
11000;SDS011;5553;48.506;8.870;2023-05-10T14:56:06;1.03;;;0.90;;
11000;SDS011;5553;48.506;8.870;2023-05-10T14:58:34;1.97;;;1.07;;
11000;SDS011;5553;48.506;8.870;2023-05-10T15:01:03;1.80;;;1.00;;
11000;SDS011;5553;48.506;8.870;2023-05-10T15:03:32;1.57;;;0.90;;
11000;SDS011;5553;48.506;8.870;2023-05-10T15:06:00;1.40;;;1.10;;
11000;SDS011;5553;48.506;8.870;2023-05-10T15:08:31;1.73;;;0.93;;
11000;SDS011;5553;48.506;8.870;2023-05-10T15:11:00;1.17;;;0.73;;
11000;SDS011;5553;48.506;8.870;2023-05-10T15:13:28;1.30;;;0.90;;
11000;SDS011;5553;48.506;8.870;2023-05-10T15:15:56;2.70;;;1.20;;
11000;SDS011;5553;48.506;8.870;2023-05-10T15:18:25;1.17;;;0.93;;
11000;SDS011;5553;48.506;8.870;2023-05-10T15:20:53;2.60;;;0.80;;